TFM - Tactical Decision Aid (Experimental) INFO Settings
ID: Runway Winds: CIG/VIS Threshold: METAR Board: Map:

KMSN - Madison-Dane Cnty Rgnl

Updated at: 2305 UTC 20 Feb 2018
Latest TAF at: 2235 UTC 20 Feb 2018

TAF Board

Time2253Z21/00Z21/01Z21/02Z21/03Z21/04Z21/05Z21/06Z21/07Z21/08Z21/09Z21/10Z21/11Z21/12Z
TypeOBSPRVLPRVLPRVLPRVLPRVLPRVLPRVLPRVLPRVLPRVLPRVLPRVLPRVL
VIS10>6>6>6>6>6>6>6>6>6>6>6>6>6
CIG15353535353535353535353535--
CoverOVCBKNBKNBKNBKNBKNBKNBKNBKNBKNBKNBKNBKNSCT
FltCatMVFRVFRVFRVFRVFRVFRVFRVFRVFRVFRVFRVFRVFRVFR
WX----------------------------
WDirVRB300300300300300300300300300300300300320
WSpd67777777777779
WGst----------------------------
R03/21
XWndVRB7777777777778
HWndVRB0000000000003
R14/32
XWndVRB-2-2-2-2-2-2-2-2-2-2-2-21
HWndVRB-7-7-7-7-7-7-7-7-7-7-7-7-9
R18/36
XWndVRB-6-6-6-6-6-6-6-6-6-6-6-6-6
HWndVRB-3-3-3-3-3-3-3-3-3-3-3-3-7
TAF
KMSN 202235Z 2023/2118 29007KT P6SM SCT008 OVC020
  FM210000 30007KT P6SM SCT015 BKN035
  FM211200 32009KT P6SM SCT200


METAR Board

Time20/12Z 20/13Z 20/14Z 20/15Z 20/16Z 20/17Z 20/18Z 20/19Z 20/20Z 20/21Z 20/22Z 20/23Z
VIS3 3 7 8 8 2 2 4 10 10 10 10
CIG43 95 20 90 5 34 50 80 12 7 170 15
CoverOVCBKNOVCOVCOVCOVCOVCOVCOVCOVCOVCOVC
FltCatMVFRMVFRMVFRVFRIFRIFRIFRMVFRMVFRIFRVFRMVFR
WX-RA BR-RA BR------RA BRRA BR-RA BR--------
WDir9014002700210002902903000
WSpd3 6 0 3 0 4 3 0 6 6 6 6
WGst-- -- -- -- -- -- -- -- -- -- -- --
METAR
KMSN 201153Z 09003KT 3SM -RA BR FEW006 FEW033 OVC043 00/00 A2983 RMK AO2 PK WND 30035/1114 RAE31B44UPB31E44 SLP108 P0017 60030 70071 T00000000 10011 20000 53021 $
KMSN 201253Z 14006KT 3SM -RA BR FEW070 BKN095 BKN110 01/00 A2979 RMK AO2 SFC VIS 6 SLP097 P0008 T00060000 $
KMSN 201353Z 00000KT 7SM BKN020 OVC025 01/01 A2984 RMK AO2 RAE23 SLP111 P0000 T00110011 $
KMSN 201453Z 27003KT 8SM FEW015 SCT050 OVC090 02/02 A2982 RMK AO2 RAB1354E32 SLP105 P0001 60009 T00220017 56004 $
KMSN 201553Z 00000KT 8SM BKN005 OVC027 03/02 A2982 RMK AO2 SLP106 T00280022 $
KMSN 201700Z 21004KT 2SM R36/5000VP6000FT RA BR FEW007 BKN034 OVC080 03/03 A2983 RMK AO2 LTG DSNT N P0003 T00330028 $
KMSN 201753Z VRB03KT 2SM RA BR SCT006 BKN050 OVC085 03/03 A2985 RMK AO2 SFC VIS 2 1/2 SLP117 P0012 60022 T00330028 10033 20000 51010 $
KMSN 201853Z 00000KT 4SM -RA BR SCT008 OVC080 03/02 A2986 RMK AO2 PRESRR SLP118 P0008 T00280022 $
KMSN 201953Z 29006KT 10SM OVC012 02/01 A2986 RMK AO2 RAE53 SLP120 P0003 T00220011 $
KMSN 202053Z 29006KT 10SM OVC007 02/01 A2988 RMK AO2 SLP127 60011 T00170006 53010 $
KMSN 202153Z 30006KT 10SM SCT005 OVC170 02/01 A2991 RMK AO2 SLP137 T00170006 $
KMSN 202253Z VRB06KT 10SM OVC015 01/M01 A2998 RMK AO2 PRESRR SLP161 T00111011 $

TAF/METAR Board Legend

Potential Impact
  None Marginal Slight Moderate High
Visibility (sm) >5 3≤X≤5 1≤X<3 <1
Ceiling (100 ft) >30 10≤X≤30 5≤X<10 <5
Wind Speed (kt) <10 10≤X<20 20≤X<30 ≥30
Wind Gust (kt) <15 15≤X<25 25≤X<35 ≥35
Weather No Wx Reported VCTS -TS,-FZRA TS,FZRA +TS,+FZRA




Page loaded:  23:05 UTC  |   03:05 PM Pacific  |   04:05 PM Mountain  |   05:05 PM Central  |   06:05 PM Eastern